Time;durP1;ratioP1;P1;durP2;ratioP2;P2;SDS_P1;SDS_P2;PMS_P1;PMS_P2;Temp;Humidity;BMP_temperature;BMP_pressure;BME280_temperature;BME280_humidity;BME280_pressure;Samples;Min_cycle;Max_cycle;Signal;HPM_P1;HPM_P2
2022/08/12 00:44:37;;;;;;;4.43;3.10;;;23.10;68.90;;;;;;6277329;22;20495;-81
2022/08/12 00:47:04;;;;;;;3.40;3.13;;;23.10;68.90;;;;;;6277332;22;20898;-76
2022/08/12 00:49:32;;;;;;;3.90;3.60;;;23.00;69.00;;;;;;6277853;22;20924;-79
2022/08/12 00:52:08;;;;;;;3.67;3.17;;;23.00;69.00;;;;;;6276736;22;20445;-80
2022/08/12 00:54:39;;;;;;;3.43;2.87;;;23.00;69.10;;;;;;6277528;22;20440;-80
2022/08/12 00:57:09;;;;;;;3.67;3.37;;;23.00;69.30;;;;;;6276382;22;20449;-79
2022/08/12 00:59:42;;;;;;;3.70;3.40;;;23.00;69.30;;;;;;6276951;22;20500;-80
2022/08/12 01:02:17;;;;;;;5.40;3.47;;;23.00;69.40;;;;;;6259009;22;20444;-80
2022/08/12 01:13:04;;;;;;;3.80;3.50;;;22.90;69.60;;;;;;6277288;22;20437;-79
2022/08/12 01:15:35;;;;;;;3.17;2.97;;;22.90;69.60;;;;;;6275456;22;20512;-79
2022/08/12 01:18:15;;;;;;;;;;;;;;;;;;;;;
2022/08/12 01:20:50;;;;;;;9.70;3.80;;;22.80;69.80;;;;;;6276865;22;20507;-80
2022/08/12 01:23:58;;;;;;;4.30;3.80;;;22.80;70.30;;;;;;6275806;22;20423;-76
2022/08/12 01:26:27;;;;;;;6.07;5.57;;;22.80;70.20;;;;;;6274991;22;20997;-79
2022/08/12 01:28:57;;;;;;;6.13;5.53;;;22.80;70.30;;;;;;6274738;22;20906;-77
2022/08/12 01:31:25;;;;;;;5.90;5.30;;;22.70;70.20;;;;;;6273315;22;20484;-80
2022/08/12 01:34:04;;;;;;;6.00;4.20;;;22.70;70.20;;;;;;6273832;22;20461;-76
2022/08/12 01:36:36;;;;;;;4.37;3.97;;;22.70;70.20;;;;;;6274186;22;20433;-76
2022/08/12 01:39:05;;;;;;;4.00;3.60;;;22.70;70.30;;;;;;6274856;22;20434;-80
2022/08/12 01:41:38;;;;;;;3.73;3.43;;;22.70;70.40;;;;;;6274347;22;20421;-76
2022/08/12 01:44:08;;;;;;;5.13;4.60;;;22.70;70.40;;;;;;6276662;22;20430;-80
2022/08/12 01:46:44;;;;;;;4.70;4.27;;;22.70;70.40;;;;;;6276400;22;20423;-80
2022/08/12 01:49:32;;;;;;;4.60;4.10;;;22.70;70.30;;;;;;6277355;22;20444;-80
2022/08/12 01:52:08;;;;;;;5.97;3.73;;;22.70;70.90;;;;;;6276465;22;20434;-80
2022/08/12 01:54:50;;;;;;;6.00;3.30;;;22.70;69.70;;;;;;6234879;22;20425;-77
2022/08/12 01:57:24;;;;;;;5.33;3.53;;;22.70;69.20;;;;;;6276123;22;20445;-80
2022/08/12 01:59:58;;;;;;;5.80;4.13;;;22.70;69.20;;;;;;6276999;22;20443;-79
2022/08/12 02:02:33;;;;;;;4.53;3.97;;;22.70;69.10;;;;;;6276359;22;20430;-75
2022/08/12 02:11:17;;;;;;;4.17;3.77;;;22.60;68.90;;;;;;6276411;22;20494;-80
2022/08/12 02:14:20;;;;;;;5.10;3.43;;;22.60;68.70;;;;;;6276441;22;20512;-75
2022/08/12 02:16:58;;;;;;;4.07;3.77;;;22.60;68.60;;;;;;6275039;22;20429;-78
2022/08/12 02:19:41;;;;;;;3.40;3.20;;;22.60;68.40;;;;;;6274310;22;20433;-79
2022/08/12 02:22:16;;;;;;;5.50;3.83;;;22.60;68.50;;;;;;6275287;22;20499;-80
2022/08/12 02:24:46;;;;;;;4.43;4.13;;;22.60;68.40;;;;;;6276838;22;20429;-76
2022/08/12 02:27:15;;;;;;;4.17;3.77;;;22.50;68.10;;;;;;6275988;22;20454;-76
2022/08/12 02:29:44;;;;;;;4.03;3.73;;;22.50;68.10;;;;;;6249171;22;20442;-76
2022/08/12 02:32:11;;;;;;;7.50;3.43;;;22.50;68.00;;;;;;6260927;22;20715;-80
2022/08/12 02:34:38;;;;;;;4.30;3.67;;;22.50;67.70;;;;;;6276700;22;20493;-80
2022/08/12 02:37:14;;;;;;;6.57;4.00;;;22.50;67.60;;;;;;6275783;22;20480;-76
2022/08/12 02:39:47;;;;;;;3.80;3.50;;;22.50;67.60;;;;;;6275959;22;20508;-76
2022/08/12 02:42:16;;;;;;;3.60;3.30;;;22.50;67.60;;;;;;6275691;22;20795;-76
2022/08/12 02:44:49;;;;;;;6.50;3.40;;;22.50;67.40;;;;;;6276136;22;20580;-76
2022/08/12 02:47:19;;;;;;;4.40;3.27;;;22.50;67.30;;;;;;6275396;22;20505;-76
2022/08/12 02:49:51;;;;;;;4.03;3.70;;;22.50;67.20;;;;;;6276800;22;20437;-80
2022/08/12 02:52:19;;;;;;;4.30;3.10;;;22.50;67.20;;;;;;6256918;22;20428;-80
2022/08/12 02:54:51;;;;;;;3.73;3.43;;;22.50;67.20;;;;;;6255044;22;20435;-79
2022/08/12 02:57:20;;;;;;;3.70;3.40;;;22.50;67.20;;;;;;6275765;22;20448;-79
2022/08/12 02:59:49;;;;;;;4.07;3.60;;;22.50;67.20;;;;;;6276100;22;20445;-75
2022/08/12 03:02:20;;;;;;;4.30;3.90;;;22.50;67.20;;;;;;6276029;22;20438;-80
2022/08/12 03:04:51;;;;;;;4.00;3.57;;;22.50;67.00;;;;;;6276204;22;20461;-80
2022/08/12 03:07:34;;;;;;;4.13;3.93;;;22.50;66.90;;;;;;6275383;22;20437;-76
2022/08/12 03:10:07;;;;;;;4.23;3.63;;;22.40;66.70;;;;;;6276252;22;20511;-76
2022/08/12 03:12:37;;;;;;;4.67;3.67;;;22.40;66.70;;;;;;6275913;22;20419;-76
2022/08/12 03:15:09;;;;;;;5.07;3.80;;;22.40;66.90;;;;;;6276898;22;20794;-76
2022/08/12 03:17:45;;;;;;;4.20;3.90;;;22.30;67.00;;;;;;6275712;22;21053;-75
2022/08/12 03:20:16;;;;;;;4.77;4.33;;;22.30;67.00;;;;;;6275793;22;20504;-76
2022/08/12 03:22:44;;;;;;;4.57;4.27;;;22.30;67.00;;;;;;6276217;22;20429;-76
2022/08/12 03:25:16;;;;;;;6.33;3.90;;;22.30;67.00;;;;;;6276421;22;20454;-76
2022/08/12 03:27:48;;;;;;;5.43;4.80;;;22.30;67.00;;;;;;6275193;22;20426;-76
2022/08/12 03:30:22;;;;;;;5.37;4.70;;;22.30;67.20;;;;;;6247963;22;20515;-80
2022/08/12 03:32:52;;;;;;;5.30;4.90;;;22.20;67.30;;;;;;6265686;22;20425;-80
2022/08/12 03:35:26;;;;;;;5.10;4.17;;;22.20;67.50;;;;;;6278034;22;20458;-80
2022/08/12 03:37:57;;;;;;;6.37;4.93;;;22.20;67.60;;;;;;6277573;22;20486;-76
2022/08/12 04:02:41;;;;;;;4.83;4.43;;;22.00;67.30;;;;;;6278897;22;20486;-80
2022/08/12 04:05:11;;;;;;;4.47;4.07;;;22.00;67.40;;;;;;6277672;22;20428;-74
2022/08/12 04:07:39;;;;;;;3.80;3.50;;;22.00;67.50;;;;;;6237771;22;20431;-79
2022/08/12 04:10:07;;;;;;;4.47;3.50;;;22.00;67.50;;;;;;6276443;22;20868;-75
2022/08/12 04:15:21;;;;;;;4.50;3.87;;;22.00;67.80;;;;;;6277621;22;20464;-79
2022/08/12 04:17:51;;;;;;;5.80;4.00;;;21.90;67.80;;;;;;6277554;22;20430;-75
2022/08/12 04:20:19;;;;;;;7.07;5.37;;;22.00;67.90;;;;;;6277208;22;20479;-76
2022/08/12 04:22:46;;;;;;;6.83;3.83;;;21.90;67.90;;;;;;6276044;22;20758;-80
2022/08/12 04:25:14;;;;;;;4.10;3.27;;;21.90;67.90;;;;;;6274055;22;20460;-80
2022/08/12 04:27:45;;;;;;;5.53;3.70;;;22.00;68.00;;;;;;6276084;22;20684;-80
2022/08/12 04:30:13;;;;;;;7.37;4.23;;;22.00;68.00;;;;;;6275846;22;20534;-80
2022/08/12 04:32:40;;;;;;;5.27;4.40;;;21.90;68.00;;;;;;6276447;22;20437;-80
2022/08/12 04:35:09;;;;;;;5.00;4.57;;;21.90;68.10;;;;;;6276111;22;20437;-80
2022/08/12 04:37:36;;;;;;;4.60;4.20;;;21.90;68.20;;;;;;6276738;22;20440;-80
2022/08/12 04:40:04;;;;;;;5.13;4.53;;;21.90;68.30;;;;;;6277188;22;20458;-80
2022/08/12 04:42:31;;;;;;;8.70;4.83;;;21.90;68.40;;;;;;6277542;22;20453;-80
2022/08/12 04:45:00;;;;;;;6.20;4.13;;;21.90;68.60;;;;;;6277829;22;20437;-76
2022/08/12 04:47:28;;;;;;;5.57;4.60;;;21.90;68.70;;;;;;6276494;22;20433;-76
2022/08/12 04:49:55;;;;;;;6.70;5.20;;;22.00;68.80;;;;;;6276832;22;20438;-76
2022/08/12 04:52:23;;;;;;;5.27;4.77;;;22.00;69.00;;;;;;6276880;22;20457;-80
2022/08/12 04:54:51;;;;;;;7.57;4.60;;;22.00;69.00;;;;;;6278546;22;20803;-79
2022/08/12 04:57:18;;;;;;;6.43;5.80;;;22.00;69.10;;;;;;6277447;22;20522;-80
2022/08/12 04:59:45;;;;;;;4.50;4.10;;;22.00;69.20;;;;;;6286323;22;20437;-80
2022/08/12 05:02:12;;;;;;;4.73;4.20;;;22.00;69.20;;;;;;6285857;22;20954;-79
2022/08/12 05:04:40;;;;;;;5.10;4.63;;;22.00;69.50;;;;;;6287049;22;20999;-79
2022/08/12 05:07:08;;;;;;;5.10;4.60;;;22.10;69.50;;;;;;6276567;22;20442;-79
2022/08/12 05:09:37;;;;;;;5.10;4.07;;;22.10;69.50;;;;;;6277025;22;20963;-80
2022/08/12 05:12:05;;;;;;;5.10;3.97;;;22.10;69.70;;;;;;6276875;22;20436;-76
2022/08/12 05:14:53;;;;;;;4.23;3.70;;;22.10;69.70;;;;;;6277321;22;20441;-76
2022/08/12 05:17:20;;;;;;;5.20;4.03;;;22.20;69.50;;;;;;6276620;22;20465;-80
2022/08/12 05:19:47;;;;;;;5.07;4.53;;;22.20;69.30;;;;;;6277506;22;20430;-80
2022/08/12 05:22:14;;;;;;;3.97;3.67;;;22.30;69.00;;;;;;6276644;22;20437;-80
2022/08/12 05:24:43;;;;;;;4.50;3.90;;;22.30;69.10;;;;;;6277139;22;20483;-80
2022/08/12 05:27:10;;;;;;;4.63;4.20;;;22.30;69.40;;;;;;6276059;22;20469;-80
2022/08/12 05:29:39;;;;;;;5.93;4.20;;;22.40;69.70;;;;;;6277221;22;20425;-76
2022/08/12 05:32:10;;;;;;;4.40;3.90;;;22.40;69.70;;;;;;6275150;22;20448;-80
2022/08/12 05:34:37;;;;;;;4.63;4.23;;;22.40;69.70;;;;;;6277158;22;20956;-80
2022/08/12 05:37:04;;;;;;;7.93;4.37;;;22.40;69.80;;;;;;6276463;22;20499;-79
2022/08/12 05:39:31;;;;;;;6.90;4.17;;;22.50;70.00;;;;;;6277049;22;20464;-79
2022/08/12 05:41:59;;;;;;;4.47;4.00;;;22.50;70.30;;;;;;6277159;22;20520;-76
2022/08/12 05:44:26;;;;;;;4.20;3.77;;;22.60;70.70;;;;;;6275726;22;20858;-80
2022/08/12 05:46:53;;;;;;;5.87;4.27;;;22.60;70.80;;;;;;6276874;22;20909;-80
2022/08/12 05:49:20;;;;;;;6.53;4.73;;;22.60;70.80;;;;;;6276258;22;20462;-80
2022/08/12 05:51:47;;;;;;;3.97;3.40;;;22.60;70.60;;;;;;6277073;22;20433;-80
2022/08/12 05:54:15;;;;;;;4.13;3.73;;;22.70;70.00;;;;;;6275566;22;20438;-78
2022/08/12 05:56:42;;;;;;;4.60;4.20;;;22.70;70.20;;;;;;6276652;22;20445;-80
2022/08/12 05:59:12;;;;;;;3.27;2.97;;;22.80;70.60;;;;;;6276304;22;20430;-80
2022/08/12 06:01:40;;;;;;;3.37;3.07;;;22.80;70.00;;;;;;6276642;22;20927;-80
2022/08/12 06:04:08;;;;;;;4.77;3.60;;;22.90;68.90;;;;;;6276110;22;20437;-80
2022/08/12 06:06:40;;;;;;;4.70;3.23;;;23.00;68.90;;;;;;6277192;22;20933;-80
2022/08/12 06:09:09;;;;;;;4.43;3.30;;;23.00;68.80;;;;;;6276374;22;20430;-79
2022/08/12 06:11:40;;;;;;;4.50;3.27;;;23.00;69.00;;;;;;6276534;22;20433;-80
2022/08/12 06:14:08;;;;;;;4.93;3.60;;;23.10;69.10;;;;;;6274877;22;20426;-78
2022/08/12 06:16:36;;;;;;;3.70;3.30;;;23.20;69.60;;;;;;6276785;22;20436;-79
2022/08/12 06:19:03;;;;;;;5.17;3.03;;;23.20;69.70;;;;;;6276340;22;20426;-80
2022/08/12 06:21:30;;;;;;;7.97;3.50;;;23.30;69.10;;;;;;6275968;22;20497;-79
2022/08/12 06:23:57;;;;;;;6.13;3.07;;;23.30;67.60;;;;;;6274503;22;20509;-79
2022/08/12 06:26:24;;;;;;;2.63;2.43;;;23.40;68.30;;;;;;6275536;22;20434;-79
2022/08/12 06:28:51;;;;;;;4.87;2.70;;;23.40;69.00;;;;;;6276682;22;20442;-76
2022/08/12 06:31:19;;;;;;;3.30;3.00;;;23.50;66.90;;;;;;6275425;22;20472;-76
2022/08/12 06:33:49;;;;;;;3.53;2.80;;;23.50;66.20;;;;;;6276462;22;20434;-76
2022/08/12 06:36:19;;;;;;;3.77;2.83;;;23.60;67.30;;;;;;6275658;22;20956;-76
2022/08/12 06:38:47;;;;;;;4.33;3.03;;;23.70;67.10;;;;;;6276516;22;20452;-76
2022/08/12 06:43:59;;;;;;;5.70;3.27;;;23.90;67.70;;;;;;6276912;22;20449;-80
2022/08/12 06:46:28;;;;;;;3.07;2.63;;;23.90;68.00;;;;;;6275874;22;20496;-80
2022/08/12 06:48:58;;;;;;;3.60;2.93;;;24.00;68.50;;;;;;6276423;22;20491;-80
2022/08/12 06:51:26;;;;;;;3.73;3.20;;;24.10;68.70;;;;;;6275805;22;20448;-78
2022/08/12 06:53:54;;;;;;;2.87;2.67;;;24.20;69.10;;;;;;6276787;22;20434;-80
2022/08/12 06:56:21;;;;;;;3.00;2.80;;;24.30;69.50;;;;;;6275863;22;20434;-80
2022/08/12 06:58:48;;;;;;;2.43;2.23;;;24.30;69.60;;;;;;6276319;22;20894;-80
2022/08/12 07:01:16;;;;;;;4.10;3.40;;;24.40;69.80;;;;;;6275249;22;20442;-76
2022/08/12 07:03:43;;;;;;;5.30;2.20;;;24.50;66.20;;;;;;6275898;22;20435;-80
2022/08/12 07:06:12;;;;;;;5.50;2.00;;;24.50;65.40;;;;;;6276288;22;20438;-80
2022/08/12 07:08:42;;;;;;;2.60;2.40;;;24.60;63.20;;;;;;6277018;22;20922;-76
2022/08/12 07:11:13;;;;;;;3.73;2.23;;;24.70;65.30;;;;;;6276778;22;20435;-79
2022/08/12 07:13:43;;;;;;;3.77;2.80;;;24.80;66.80;;;;;;6275758;22;20430;-75
2022/08/12 07:16:15;;;;;;;3.97;2.50;;;24.80;66.00;;;;;;6275994;22;20742;-75
2022/08/12 07:18:43;;;;;;;4.90;3.00;;;25.00;66.90;;;;;;6275373;22;20440;-75
2022/08/12 07:21:13;;;;;;;2.73;2.03;;;25.00;67.20;;;;;;6276325;22;20453;-75
2022/08/12 07:23:41;;;;;;;4.67;2.40;;;25.10;67.80;;;;;;6275669;22;20458;-75
2022/08/12 07:26:10;;;;;;;2.50;2.30;;;25.20;67.50;;;;;;6275886;22;20434;-79
2022/08/12 07:28:41;;;;;;;3.10;2.70;;;25.30;66.20;;;;;;6273534;22;20430;-79
2022/08/12 07:31:11;;;;;;;3.90;2.40;;;25.40;63.00;;;;;;6275726;22;20505;-80
2022/08/12 07:33:39;;;;;;;5.67;2.33;;;25.50;62.50;;;;;;6276026;22;20921;-80
2022/08/12 07:36:09;;;;;;;3.07;1.93;;;25.60;60.30;;;;;;6275969;22;20434;-80
2022/08/12 07:38:42;;;;;;;2.77;2.20;;;25.80;62.30;;;;;;6275793;22;20513;-76
2022/08/12 07:41:12;;;;;;;3.20;1.97;;;25.90;61.90;;;;;;6276308;22;20494;-76
2022/08/12 07:43:42;;;;;;;4.23;3.00;;;26.00;59.40;;;;;;6275950;22;20902;-77
2022/08/12 07:46:11;;;;;;;2.43;2.23;;;26.10;59.50;;;;;;6275740;22;20783;-80
2022/08/12 07:48:40;;;;;;;2.80;2.47;;;26.30;59.80;;;;;;6275710;22;20744;-80
2022/08/12 07:51:08;;;;;;;5.80;1.80;;;26.40;59.20;;;;;;6276091;22;20425;-80
2022/08/12 07:53:37;;;;;;;2.80;2.30;;;26.40;58.00;;;;;;6275230;22;20458;-80
2022/08/12 07:56:08;;;;;;;3.30;2.00;;;26.50;58.60;;;;;;6275697;22;20429;-76
2022/08/12 07:58:38;;;;;;;4.50;2.27;;;26.60;57.70;;;;;;6276419;22;20960;-77
2022/08/12 08:01:05;;;;;;;3.20;2.03;;;26.60;57.40;;;;;;6276711;22;20437;-80
2022/08/12 08:03:33;;;;;;;2.03;1.70;;;26.70;57.10;;;;;;6276770;22;20984;-77
2022/08/12 08:09:23;;;;;;;2.67;1.90;;;26.90;56.70;;;;;;6263255;22;20831;-76
2022/08/12 08:14:39;;;;;;;4.30;1.97;;;27.00;56.50;;;;;;6254234;22;20430;-75
2022/08/12 08:17:11;;;;;;;5.20;2.27;;;26.90;56.30;;;;;;6283405;22;20414;-78
2022/08/12 08:19:38;;;;;;;5.53;2.30;;;27.00;56.30;;;;;;6283854;22;20908;-79
2022/08/12 08:22:06;;;;;;;2.43;1.97;;;27.10;56.40;;;;;;6286414;22;20433;-79
2022/08/12 08:24:35;;;;;;;2.17;1.97;;;27.10;56.40;;;;;;6283037;22;20425;-75
2022/08/12 08:27:04;;;;;;;4.90;2.37;;;27.30;56.50;;;;;;6285413;22;20445;-74
2022/08/12 08:29:34;;;;;;;2.13;1.53;;;27.40;56.50;;;;;;6282109;22;20430;-75
2022/08/12 08:32:06;;;;;;;6.07;2.17;;;27.50;57.10;;;;;;6285450;22;20457;-75
2022/08/12 08:34:34;;;;;;;3.50;2.07;;;27.60;56.90;;;;;;6284297;22;20461;-79
2022/08/12 08:37:03;;;;;;;2.47;2.10;;;27.70;56.00;;;;;;6287298;22;20452;-80
2022/08/12 08:39:30;;;;;;;3.30;2.17;;;27.70;55.40;;;;;;6286515;22;20496;-76
2022/08/12 08:42:38;;;;;;;2.30;1.60;;;27.80;55.50;;;;;;6291288;22;20430;-80
2022/08/12 08:45:11;;;;;;;2.40;1.87;;;27.80;55.00;;;;;;6287926;22;20430;-80
2022/08/12 08:47:43;;;;;;;2.20;1.63;;;27.90;55.00;;;;;;6294323;22;20444;-80
2022/08/12 08:53:35;;;;;;;2.63;1.47;;;27.80;53.80;;;;;;6245954;22;20438;-78
2022/08/12 08:56:02;;;;;;;3.10;1.40;;;27.90;53.70;;;;;;6281039;22;20484;-79
2022/08/12 08:58:30;;;;;;;3.23;2.10;;;27.80;53.10;;;;;;6293636;22;20434;-79
2022/08/12 09:00:58;;;;;;;3.50;1.97;;;27.90;53.20;;;;;;6295622;22;20493;-79
2022/08/12 09:03:27;;;;;;;2.20;1.30;;;27.90;52.70;;;;;;6294833;22;20466;-79
2022/08/12 09:05:54;;;;;;;6.30;2.27;;;27.90;52.70;;;;;;6287294;22;20432;-81
2022/08/12 09:08:21;;;;;;;3.87;1.60;;;27.90;52.90;;;;;;6287413;22;20430;-78
2022/08/12 09:10:48;;;;;;;5.23;1.63;;;27.90;53.30;;;;;;6284214;22;20442;-78
2022/08/12 09:13:33;;;;;;;2.37;1.70;;;27.90;52.90;;;;;;6283493;22;20434;-78
2022/08/12 09:16:02;;;;;;;2.43;1.57;;;27.90;52.50;;;;;;6280882;22;20421;-80
2022/08/12 09:18:30;;;;;;;2.23;1.73;;;28.00;52.30;;;;;;6281123;22;20430;-80
2022/08/12 09:20:57;;;;;;;2.60;1.60;;;27.90;52.10;;;;;;6278391;22;20441;-80
2022/08/12 09:23:25;;;;;;;4.63;2.00;;;28.00;52.00;;;;;;6280483;22;20432;-80
2022/08/12 09:25:52;;;;;;;1.87;1.67;;;27.90;51.70;;;;;;6245715;22;20427;-80
2022/08/12 09:28:19;;;;;;;3.33;1.50;;;28.00;51.50;;;;;;6268912;22;20523;-79
2022/08/12 09:30:49;;;;;;;4.40;2.10;;;28.00;51.30;;;;;;6276406;22;20441;-79
2022/08/12 09:33:17;;;;;;;3.17;1.63;;;27.90;51.10;;;;;;6276938;22;20443;-79
2022/08/12 09:35:44;;;;;;;5.73;1.50;;;27.90;51.10;;;;;;6276674;22;20476;-80
2022/08/12 09:38:16;;;;;;;4.63;1.73;;;27.80;51.40;;;;;;6274660;22;20430;-81
2022/08/12 09:40:46;;;;;;;5.17;2.43;;;27.80;51.20;;;;;;6276758;22;20505;-76
2022/08/12 09:45:59;;;;;;;3.63;1.80;;;27.90;50.70;;;;;;6275975;22;20440;-80
2022/08/12 09:48:27;;;;;;;1.77;1.60;;;27.90;50.80;;;;;;6276848;22;20990;-80
2022/08/12 09:50:54;;;;;;;3.00;1.30;;;27.90;50.80;;;;;;6273755;22;20430;-76
2022/08/12 09:53:24;;;;;;;2.97;1.73;;;27.80;50.10;;;;;;6274051;22;20487;-76
2022/08/12 09:56:11;;;;;;;1.70;1.40;;;27.80;50.40;;;;;;6273087;22;20442;-76
2022/08/12 09:58:39;;;;;;;5.23;1.90;;;27.90;50.50;;;;;;6275701;22;20928;-80
2022/08/12 10:01:06;;;;;;;4.57;1.63;;;27.80;50.40;;;;;;6277124;22;20540;-80
2022/08/12 10:03:36;;;;;;;2.83;1.90;;;27.90;50.50;;;;;;6276389;22;20492;-81
2022/08/12 10:06:05;;;;;;;1.50;1.40;;;28.00;50.10;;;;;;6273146;22;20436;-80
2022/08/12 10:08:34;;;;;;;1.73;1.63;;;28.00;49.90;;;;;;6275532;22;20442;-80
2022/08/12 10:13:48;;;;;;;2.27;1.40;;;28.10;49.20;;;;;;6275813;22;20448;-79
2022/08/12 10:16:18;;;;;;;5.80;1.70;;;28.20;49.20;;;;;;6274909;22;20504;-75
2022/08/12 10:18:52;;;;;;;1.90;1.60;;;28.10;48.60;;;;;;6275335;22;20527;-75
2022/08/12 10:21:22;;;;;;;4.60;2.20;;;28.20;49.10;;;;;;6278951;22;20516;-77
2022/08/12 10:23:49;;;;;;;2.40;2.20;;;28.20;49.50;;;;;;6275576;22;20505;-77
2022/08/12 10:31:59;;;;;;;1.70;1.60;;;28.40;50.00;;;;;;6217178;23;20430;-80
2022/08/12 10:34:27;;;;;;;7.23;2.20;;;28.50;50.00;;;;;;6265013;22;20910;-80
2022/08/12 10:36:57;;;;;;;2.40;1.57;;;28.50;49.70;;;;;;6278223;22;20438;-80
2022/08/12 10:39:26;;;;;;;2.63;1.80;;;28.50;49.70;;;;;;6276766;22;20430;-80
2022/08/12 10:44:44;;;;;;;2.57;2.07;;;28.60;49.70;;;;;;6218896;22;20428;-80
2022/08/12 10:47:15;;;;;;;1.67;1.30;;;28.70;49.90;;;;;;6275950;22;20736;-80
2022/08/12 10:49:43;;;;;;;4.63;1.83;;;28.80;48.80;;;;;;6277571;22;20430;-80
2022/08/12 10:52:11;;;;;;;3.20;2.00;;;28.80;48.60;;;;;;6276954;22;20510;-80
2022/08/12 10:54:39;;;;;;;2.60;1.83;;;28.80;48.50;;;;;;6276251;22;20458;-80
2022/08/12 10:57:06;;;;;;;4.30;2.20;;;28.90;48.60;;;;;;6275558;22;20931;-81
2022/08/12 10:59:33;;;;;;;2.37;2.17;;;28.90;48.10;;;;;;6276962;22;20434;-76
2022/08/12 11:02:02;;;;;;;3.13;1.73;;;28.90;48.10;;;;;;6275792;22;21014;-75
2022/08/12 11:04:30;;;;;;;1.87;1.70;;;29.00;48.40;;;;;;6277929;22;20430;-80
2022/08/12 11:06:59;;;;;;;4.90;1.80;;;29.00;48.40;;;;;;6274857;22;20772;-80
2022/08/12 11:09:31;;;;;;;3.90;1.80;;;29.00;48.50;;;;;;6276589;22;20438;-81
2022/08/12 11:12:01;;;;;;;2.97;2.50;;;29.00;48.10;;;;;;6275698;22;20513;-75
2022/08/12 11:14:32;;;;;;;3.80;2.47;;;29.00;48.50;;;;;;6276350;22;20457;-75
2022/08/12 11:17:00;;;;;;;2.13;1.77;;;29.00;48.20;;;;;;6273987;22;20513;-80
2022/08/12 11:19:28;;;;;;;2.40;1.57;;;29.10;48.20;;;;;;6261141;22;20499;-76
2022/08/12 11:22:01;;;;;;;6.43;2.13;;;29.10;48.10;;;;;;6246686;22;20514;-76
2022/08/12 11:24:28;;;;;;;3.60;1.90;;;29.10;48.00;;;;;;6260923;22;20418;-81
2022/08/12 11:26:56;;;;;;;4.33;1.87;;;29.00;48.10;;;;;;6276290;22;20438;-81
2022/08/12 11:29:25;;;;;;;2.70;1.70;;;29.00;48.10;;;;;;6258586;22;20902;-76
2022/08/12 11:31:52;;;;;;;5.10;1.93;;;29.00;48.30;;;;;;6275994;22;20434;-82
2022/08/12 11:34:22;;;;;;;3.10;1.70;;;29.10;47.90;;;;;;6275182;22;20504;-78
2022/08/12 11:36:54;;;;;;;3.77;1.80;;;29.10;48.40;;;;;;6274767;22;20752;-80
2022/08/12 11:39:23;;;;;;;2.00;1.90;;;29.20;48.10;;;;;;6275037;22;20948;-81
2022/08/12 11:41:51;;;;;;;2.00;1.77;;;29.20;48.20;;;;;;6275731;22;20430;-82
2022/08/12 11:44:18;;;;;;;1.93;1.83;;;29.30;48.00;;;;;;6275109;22;20495;-81
2022/08/12 11:46:45;;;;;;;4.03;1.90;;;29.30;47.90;;;;;;6275051;22;20741;-76
2022/08/12 11:49:12;;;;;;;1.40;1.30;;;29.30;47.80;;;;;;6275222;22;20437;-76
2022/08/12 11:51:39;;;;;;;2.13;1.90;;;29.40;47.70;;;;;;6276284;22;20506;-80
2022/08/12 11:54:07;;;;;;;4.00;1.90;;;29.40;48.00;;;;;;6277402;22;20936;-81
2022/08/12 11:56:35;;;;;;;3.20;1.87;;;29.40;47.80;;;;;;6276572;22;20426;-80
2022/08/12 11:59:02;;;;;;;3.40;1.97;;;29.40;47.90;;;;;;6277452;22;20429;-77
2022/08/12 12:01:29;;;;;;;3.30;1.73;;;29.30;47.70;;;;;;6276393;22;20444;-76
2022/08/12 12:03:56;;;;;;;4.50;1.83;;;29.40;48.10;;;;;;6276696;22;20433;-81
2022/08/12 12:06:23;;;;;;;1.60;1.50;;;29.40;48.10;;;;;;6272376;22;20462;-79
2022/08/12 12:08:50;;;;;;;1.93;1.40;;;29.30;48.00;;;;;;6273356;22;20473;-80
2022/08/12 12:11:18;;;;;;;3.17;1.97;;;29.30;48.10;;;;;;6274228;22;20440;-80
2022/08/12 12:13:47;;;;;;;1.83;1.60;;;29.30;48.10;;;;;;6276211;22;20430;-78
2022/08/12 12:16:14;;;;;;;2.47;1.60;;;29.40;48.30;;;;;;6275495;22;20445;-80
2022/08/12 12:18:41;;;;;;;3.57;1.90;;;29.40;48.40;;;;;;6277164;22;20484;-81
2022/08/12 12:21:08;;;;;;;3.30;1.80;;;29.40;48.40;;;;;;6276350;22;20444;-81
2022/08/12 12:23:36;;;;;;;1.80;1.70;;;29.40;48.20;;;;;;6276402;22;20434;-80
2022/08/12 12:26:04;;;;;;;6.30;2.10;;;29.50;48.50;;;;;;6276273;22;20453;-80
2022/08/12 12:28:31;;;;;;;2.10;2.00;;;29.50;48.10;;;;;;6275374;22;20453;-81
2022/08/12 12:31:00;;;;;;;3.67;1.67;;;29.60;48.10;;;;;;6276733;22;20454;-75
2022/08/12 12:33:27;;;;;;;1.83;1.63;;;29.70;48.00;;;;;;6275845;22;20430;-75
2022/08/12 12:35:58;;;;;;;5.07;1.70;;;29.70;47.60;;;;;;6276487;22;20515;-75
2022/08/12 12:38:25;;;;;;;1.50;1.40;;;29.60;47.40;;;;;;6275945;22;20462;-77
2022/08/12 12:40:52;;;;;;;1.40;1.23;;;29.60;47.50;;;;;;6277516;22;20444;-76
2022/08/12 12:43:19;;;;;;;2.17;1.50;;;29.60;47.20;;;;;;6277302;22;20457;-75
2022/08/12 12:45:49;;;;;;;3.87;1.57;;;29.70;47.30;;;;;;6276427;22;21197;-76
2022/08/12 12:48:19;;;;;;;3.67;1.97;;;29.70;47.20;;;;;;6278408;22;20434;-76
2022/08/12 12:51:14;;;;;;;3.03;1.67;;;29.70;46.90;;;;;;6277144;22;20513;-76
2022/08/12 12:53:36;;;;;;;2.27;1.93;;;29.60;47.00;;;;;;6276510;22;20738;-76
2022/08/12 12:56:03;;;;;;;2.10;1.60;;;29.70;46.90;;;;;;6276807;22;20509;-77
2022/08/12 12:58:30;;;;;;;2.70;2.27;;;29.70;47.00;;;;;;6277212;22;20533;-77
2022/08/12 13:00:58;;;;;;;3.63;2.10;;;29.70;47.00;;;;;;6277918;22;20426;-76
2022/08/12 13:03:27;;;;;;;3.00;1.73;;;29.80;46.70;;;;;;6275816;22;20431;-76
2022/08/12 13:05:59;;;;;;;3.60;1.70;;;29.90;46.30;;;;;;6276966;22;20505;-77
2022/08/12 13:08:29;;;;;;;4.83;2.20;;;29.80;46.40;;;;;;6276940;22;20438;-76
2022/08/12 13:11:00;;;;;;;3.17;1.90;;;29.90;46.70;;;;;;6277369;22;20491;-75
2022/08/12 13:13:28;;;;;;;1.50;1.40;;;29.90;46.50;;;;;;6276854;22;20438;-76
2022/08/12 13:15:56;;;;;;;3.70;1.90;;;29.90;46.50;;;;;;6276790;22;20438;-75
2022/08/12 13:18:24;;;;;;;2.83;2.23;;;29.80;46.50;;;;;;6277633;22;20504;-76
2022/08/12 13:20:52;;;;;;;3.37;2.07;;;29.90;46.80;;;;;;6277328;22;20418;-75
2022/08/12 13:23:20;;;;;;;1.93;1.73;;;29.80;46.90;;;;;;6275055;22;20503;-75
2022/08/12 13:25:48;;;;;;;1.83;1.70;;;29.90;46.60;;;;;;6275742;22;20426;-76
2022/08/12 13:28:21;;;;;;;1.47;1.37;;;29.90;46.60;;;;;;6277336;22;20430;-76
2022/08/12 13:30:49;;;;;;;2.30;1.87;;;30.00;46.60;;;;;;6274234;22;20430;-76
2022/08/12 13:33:21;;;;;;;2.33;2.13;;;30.00;46.70;;;;;;6274975;22;20442;-75
2022/08/12 13:35:49;;;;;;;5.73;1.70;;;30.10;46.60;;;;;;6275053;22;20438;-75
2022/08/12 13:38:17;;;;;;;2.00;1.80;;;30.10;46.80;;;;;;6277736;22;20943;-77
2022/08/12 13:40:44;;;;;;;2.10;1.90;;;30.10;46.90;;;;;;6276445;22;20501;-76
2022/08/12 13:43:14;;;;;;;2.00;1.77;;;30.10;47.10;;;;;;6276969;22;20458;-75
2022/08/12 13:45:41;;;;;;;2.23;1.50;;;30.00;47.10;;;;;;6276913;22;20495;-80
2022/08/12 13:48:09;;;;;;;4.40;2.00;;;30.00;46.70;;;;;;6277119;22;20449;-81
2022/08/12 13:50:39;;;;;;;3.33;1.60;;;30.00;46.90;;;;;;6276406;22;20434;-80
2022/08/12 13:53:09;;;;;;;3.17;2.00;;;30.00;47.00;;;;;;6278031;22;20464;-80
2022/08/12 13:55:38;;;;;;;4.50;1.93;;;30.00;47.00;;;;;;6278112;22;20468;-76
2022/08/12 13:58:10;;;;;;;2.83;1.70;;;30.00;47.00;;;;;;6277510;22;20434;-76
2022/08/12 14:00:38;;;;;;;2.00;1.80;;;30.00;47.20;;;;;;6276807;22;20430;-76
2022/08/12 14:03:05;;;;;;;3.27;1.77;;;30.00;47.30;;;;;;6277218;22;20430;-75
2022/08/12 14:05:32;;;;;;;2.23;1.70;;;30.00;47.20;;;;;;6277195;22;20886;-76
2022/08/12 14:08:01;;;;;;;2.30;1.40;;;30.10;47.10;;;;;;6278537;22;20426;-80
2022/08/12 14:10:39;;;;;;;1.90;1.70;;;30.00;47.30;;;;;;6278065;22;20426;-81
2022/08/12 14:13:10;;;;;;;2.93;1.97;;;30.00;47.30;;;;;;6277081;22;20440;-81
2022/08/12 14:15:39;;;;;;;2.17;1.63;;;30.00;47.20;;;;;;6277273;22;20429;-81
2022/08/12 14:18:08;;;;;;;2.43;1.77;;;30.00;47.40;;;;;;6277549;22;21556;-80
2022/08/12 14:20:35;;;;;;;1.93;1.60;;;30.00;47.60;;;;;;6277915;22;20509;-81
2022/08/12 14:23:02;;;;;;;2.80;1.80;;;30.00;47.60;;;;;;6277029;22;20417;-80
2022/08/12 14:25:43;;;;;;;2.23;1.60;;;30.00;47.50;;;;;;6278267;22;20492;-80
2022/08/12 14:28:16;;;;;;;2.17;1.97;;;29.90;47.40;;;;;;6277297;22;21120;-79
2022/08/12 14:30:47;;;;;;;3.00;2.10;;;29.90;47.70;;;;;;6278452;22;20430;-80
2022/08/12 14:33:20;;;;;;;3.23;2.10;;;29.90;47.70;;;;;;6277662;22;20422;-81
2022/08/12 14:35:53;;;;;;;2.17;1.97;;;29.80;47.80;;;;;;6277773;22;20944;-80
2022/08/12 14:38:24;;;;;;;2.13;1.97;;;29.80;47.80;;;;;;6277275;22;20414;-79
2022/08/12 14:40:55;;;;;;;3.30;2.13;;;29.60;47.60;;;;;;6283062;22;20430;-80
2022/08/12 14:43:26;;;;;;;2.73;1.93;;;29.50;47.80;;;;;;6298160;22;20496;-80
2022/08/12 14:45:55;;;;;;;4.30;2.67;;;29.50;47.80;;;;;;6298418;22;20438;-79
2022/08/12 14:48:22;;;;;;;4.80;1.90;;;29.50;47.80;;;;;;6296630;22;20793;-75
2022/08/12 14:50:50;;;;;;;2.33;1.70;;;29.40;47.70;;;;;;6287894;22;20440;-77